Time;durP1;ratioP1;P1;durP2;ratioP2;P2;SDS_P1;SDS_P2;PMS_P1;PMS_P2;Temp;Humidity;BMP_temperature;BMP_pressure;BME280_temperature;BME280_humidity;BME280_pressure;Samples;Min_cycle;Max_cycle;Signal;HPM_P1;HPM_P2
2022/05/18 00:04:04;;;;;;;7.60;4.60;;;18.90;93.60;;;;;;21173660;28;20206;-62
2022/05/18 00:14:06;;;;;;;6.17;4.77;;;18.90;93.70;;;;;;21171721;28;20233;-62
2022/05/18 00:24:08;;;;;;;8.00;4.50;;;18.90;93.90;;;;;;21150036;28;20244;-62
2022/05/18 00:34:10;;;;;;;7.30;4.73;;;18.90;94.00;;;;;;21148319;28;20237;-61
2022/05/18 00:44:11;;;;;;;6.00;4.57;;;18.80;94.10;;;;;;21165398;28;20656;-69
2022/05/18 00:54:29;;;;;;;9.13;4.77;;;18.90;94.20;;;;;;21173201;28;20263;-71
2022/05/18 01:04:31;;;;;;;7.30;4.70;;;18.90;94.40;;;;;;21165971;28;20203;-65
2022/05/18 01:14:39;;;;;;;11.80;4.50;;;18.90;94.60;;;;;;21165088;28;20642;-63
2022/05/18 01:25:08;;;;;;;8.43;4.00;;;19.00;94.60;;;;;;21166860;28;20685;-62
2022/05/18 01:35:13;;;;;;;6.50;4.20;;;19.00;94.50;;;;;;21163678;28;20700;-61
2022/05/18 01:45:15;;;;;;;7.00;4.20;;;19.00;94.50;;;;;;21162699;28;20259;-63
2022/05/18 01:55:18;;;;;;;6.20;4.30;;;19.00;94.70;;;;;;21169759;28;20286;-64
2022/05/18 02:05:20;;;;;;;8.17;4.43;;;18.90;95.00;;;;;;21177608;28;20205;-68
2022/05/18 02:15:23;;;;;;;8.93;4.47;;;18.80;95.20;;;;;;21176204;28;20287;-65
2022/05/18 02:25:26;;;;;;;9.37;4.47;;;18.70;95.30;;;;;;21176001;28;20245;-66
2022/05/18 02:35:28;;;;;;;6.33;4.33;;;18.70;95.70;;;;;;21174998;28;20237;-67
2022/05/18 02:45:29;;;;;;;7.13;4.63;;;18.60;95.60;;;;;;21174291;28;20205;-68
2022/05/18 03:05:52;;;;;;;10.73;5.60;;;18.40;95.90;;;;;;21182408;28;20203;-65
2022/05/18 03:15:54;;;;;;;7.40;4.90;;;18.30;96.30;;;;;;21171704;28;20627;-64
2022/05/18 03:25:56;;;;;;;7.47;5.20;;;18.30;96.50;;;;;;21171400;28;20229;-69
2022/05/18 03:35:57;;;;;;;5.93;4.40;;;18.20;96.50;;;;;;21170255;28;20247;-70
2022/05/18 03:45:59;;;;;;;11.60;4.30;;;18.00;96.60;;;;;;21169178;28;20671;-73
2022/05/18 03:56:02;;;;;;;6.47;4.33;;;17.80;96.80;;;;;;21168702;28;20232;-68
2022/05/18 04:06:04;;;;;;;10.50;4.97;;;17.80;96.90;;;;;;21149702;28;20214;-70
2022/05/18 04:16:06;;;;;;;9.53;4.50;;;17.80;96.80;;;;;;21165766;28;20246;-66
2022/05/18 04:26:09;;;;;;;6.07;4.37;;;17.70;96.90;;;;;;21166755;28;20204;-62
2022/05/18 04:36:11;;;;;;;10.20;5.70;;;17.80;96.90;;;;;;21165507;28;20237;-69
2022/05/18 04:46:13;;;;;;;16.00;5.43;;;17.80;96.90;;;;;;21162988;28;20547;-62
2022/05/18 04:56:14;;;;;;;8.73;4.90;;;18.20;97.10;;;;;;21164557;28;20238;-65
2022/05/18 05:06:16;;;;;;;10.00;5.47;;;18.30;96.80;;;;;;21164591;28;20211;-61
2022/05/18 05:16:18;;;;;;;7.43;4.50;;;18.50;96.70;;;;;;21171568;28;20240;-62
2022/05/18 05:26:21;;;;;;;8.37;5.70;;;18.70;96.60;;;;;;21168305;28;20589;-61
2022/05/18 05:36:23;;;;;;;12.93;5.83;;;18.70;96.50;;;;;;21180862;28;20232;-60
2022/05/18 05:46:27;;;;;;;17.43;8.13;;;18.90;96.50;;;;;;21178947;28;20198;-63
2022/05/18 05:56:29;;;;;;;12.57;6.60;;;19.20;96.30;;;;;;21178490;28;20400;-63
2022/05/18 06:06:32;;;;;;;10.87;6.23;;;19.40;95.90;;;;;;21176547;28;20207;-64
2022/05/18 06:16:34;;;;;;;8.87;6.50;;;19.60;95.60;;;;;;21175872;28;20255;-67
2022/05/18 06:26:36;;;;;;;9.50;6.40;;;19.80;95.20;;;;;;21176063;28;20306;-65
2022/05/18 06:36:38;;;;;;;13.43;6.00;;;20.00;94.70;;;;;;21174453;28;20239;-64
2022/05/18 06:46:40;;;;;;;11.93;6.40;;;20.30;94.20;;;;;;21174419;28;20710;-62
2022/05/18 06:56:43;;;;;;;9.90;6.27;;;20.50;93.50;;;;;;21174898;28;20764;-63
2022/05/18 07:06:45;;;;;;;6.93;5.23;;;20.80;92.60;;;;;;21173518;28;20233;-64
2022/05/18 07:16:47;;;;;;;6.63;5.13;;;21.00;92.00;;;;;;21171838;28;20237;-64
2022/05/18 07:26:49;;;;;;;7.97;4.83;;;21.30;91.50;;;;;;21154125;28;20254;-63
2022/05/18 07:36:53;;;;;;;8.50;5.17;;;21.50;91.00;;;;;;21170031;28;20234;-62
2022/05/18 07:46:55;;;;;;;6.97;4.40;;;21.70;90.30;;;;;;21167415;28;20236;-63
2022/05/18 07:56:57;;;;;;;7.40;4.63;;;21.90;89.40;;;;;;21167247;28;20230;-62
2022/05/18 08:06:59;;;;;;;7.97;4.67;;;22.20;87.70;;;;;;21165299;28;20202;-62
2022/05/18 08:17:01;;;;;;;7.87;6.60;;;22.40;86.40;;;;;;21165027;28;20248;-63
2022/05/18 08:27:06;;;;;;;7.23;4.40;;;22.70;85.30;;;;;;21180243;28;20198;-63
2022/05/18 08:37:07;;;;;;;5.60;4.30;;;22.80;83.90;;;;;;21168124;28;20240;-61
2022/05/18 08:47:20;;;;;;;10.03;4.40;;;23.10;83.10;;;;;;21165638;28;20658;-63
2022/05/18 08:57:26;;;;;;;7.70;4.00;;;23.20;82.20;;;;;;21163645;28;20257;-63
2022/05/18 09:07:35;;;;;;;9.73;3.63;;;23.40;81.40;;;;;;21163095;28;20212;-61
2022/05/18 09:18:24;;;;;;;11.57;4.00;;;23.60;79.50;;;;;;21161979;28;20245;-65
2022/05/18 09:28:46;;;;;;;6.13;3.47;;;23.70;77.60;;;;;;21088643;28;20300;-64
2022/05/18 09:38:56;;;;;;;4.87;4.00;;;23.90;76.40;;;;;;21161425;28;20694;-64
2022/05/18 09:49:22;;;;;;;8.73;3.20;;;24.10;75.10;;;;;;21143734;28;20208;-64
2022/05/18 09:59:28;;;;;;;3.67;2.70;;;24.30;73.50;;;;;;21147922;28;20541;-63
2022/05/18 10:09:46;;;;;;;8.50;2.80;;;24.50;71.50;;;;;;21159978;28;20206;-69
2022/05/18 10:20:05;;;;;;;5.40;3.10;;;24.70;70.30;;;;;;21173814;28;20261;-62
2022/05/18 10:30:32;;;;;;;4.03;2.60;;;24.80;69.00;;;;;;21188308;28;20216;-63
2022/05/18 10:40:34;;;;;;;7.83;5.13;;;24.90;68.10;;;;;;21177647;28;20233;-67
2022/05/18 10:50:37;;;;;;;6.17;2.87;;;25.00;67.50;;;;;;21172219;28;20202;-63
2022/05/18 11:00:42;;;;;;;6.37;2.70;;;25.20;66.70;;;;;;21171156;28;20234;-63
2022/05/18 11:11:20;;;;;;;8.43;2.97;;;25.40;65.70;;;;;;21170993;28;20296;-63
2022/05/18 11:21:43;;;;;;;4.53;2.70;;;25.50;64.90;;;;;;21168781;28;20739;-64
2022/05/18 11:31:55;;;;;;;6.13;2.50;;;25.60;63.80;;;;;;21168633;28;20216;-63
2022/05/18 11:42:07;;;;;;;4.67;2.30;;;25.60;62.60;;;;;;21168110;28;20235;-63
2022/05/18 11:52:29;;;;;;;3.67;2.20;;;25.90;62.00;;;;;;21167559;28;20316;-62
2022/05/18 12:03:08;;;;;;;5.17;2.70;;;26.00;60.60;;;;;;21166590;28;20229;-63
2022/05/18 12:13:54;;;;;;;7.00;2.50;;;26.40;59.60;;;;;;21179387;27;20233;-64
2022/05/18 12:24:02;;;;;;;5.10;2.17;;;26.70;58.70;;;;;;21162892;28;20246;-64
2022/05/18 12:34:12;;;;;;;3.03;2.10;;;27.00;57.70;;;;;;21163608;28;20233;-63
2022/05/18 12:44:34;;;;;;;6.50;2.43;;;27.10;57.00;;;;;;21163729;28;20206;-63
2022/05/18 12:54:43;;;;;;;4.47;2.37;;;27.20;55.70;;;;;;21162806;28;20894;-62
2022/05/18 13:04:46;;;;;;;2.83;2.53;;;27.00;55.70;;;;;;21162010;28;20211;-62
2022/05/18 13:15:19;;;;;;;4.63;2.90;;;26.90;56.60;;;;;;21160956;28;20243;-67
2022/05/18 13:25:31;;;;;;;4.30;2.43;;;27.20;56.70;;;;;;21161522;28;20228;-63
2022/05/18 13:35:35;;;;;;;18.00;2.87;;;27.30;56.00;;;;;;21170480;28;20237;-67
2022/05/18 13:45:38;;;;;;;4.70;2.50;;;27.30;56.30;;;;;;21197568;28;20208;-63
2022/05/18 13:55:44;;;;;;;8.73;2.60;;;27.20;56.80;;;;;;21161569;28;20255;-64
2022/05/18 14:05:46;;;;;;;2.97;2.30;;;27.20;56.90;;;;;;21177583;28;20201;-62
2022/05/18 14:15:57;;;;;;;8.23;2.20;;;27.30;56.50;;;;;;21158664;28;20241;-72
2022/05/18 14:26:38;;;;;;;7.82;2.53;;;27.60;55.60;;;;;;21176210;28;20311;-71
2022/05/18 14:36:50;;;;;;;3.20;1.90;;;28.00;54.00;;;;;;21179549;28;20237;-68
2022/05/18 14:46:54;;;;;;;2.97;2.20;;;28.00;52.60;;;;;;21170310;28;20201;-63
2022/05/18 14:57:03;;;;;;;2.60;1.98;;;28.80;50.70;;;;;;21173299;28;20237;-64
2022/05/18 15:07:16;;;;;;;3.78;2.35;;;28.80;50.10;;;;;;21171986;28;20208;-63
2022/05/18 15:17:27;;;;;;;2.95;2.38;;;28.80;50.00;;;;;;21171432;28;20282;-64
2022/05/18 15:27:31;;;;;;;3.30;2.42;;;29.20;49.10;;;;;;21170052;28;20197;-63
2022/05/18 15:37:32;;;;;;;4.22;2.90;;;28.60;50.10;;;;;;21169902;28;20230;-64
2022/05/18 15:47:40;;;;;;;5.20;2.70;;;28.30;50.70;;;;;;21169070;28;20309;-65
2022/05/18 15:57:45;;;;;;;5.47;2.40;;;28.10;50.80;;;;;;21168655;28;20222;-64
2022/05/18 16:07:49;;;;;;;5.03;2.40;;;28.10;50.60;;;;;;21170962;28;20704;-63
2022/05/18 16:17:51;;;;;;;5.10;2.50;;;28.10;50.40;;;;;;21165897;28;20730;-65
2022/05/18 16:27:54;;;;;;;2.90;2.60;;;28.10;50.30;;;;;;21166199;28;20251;-67
2022/05/18 16:37:56;;;;;;;3.63;2.55;;;28.60;49.80;;;;;;21166062;28;20243;-65
2022/05/18 16:47:58;;;;;;;3.75;2.40;;;29.00;48.90;;;;;;21146814;28;20210;-66
2022/05/18 16:58:00;;;;;;;5.17;2.77;;;28.20;49.40;;;;;;21164059;28;20238;-65
2022/05/18 17:18:22;;;;;;;5.07;2.50;;;27.50;49.60;;;;;;21162537;28;20233;-66
2022/05/18 17:28:24;;;;;;;4.80;2.30;;;27.30;49.70;;;;;;21162157;28;20734;-63
2022/05/18 17:38:25;;;;;;;6.83;2.80;;;27.20;49.70;;;;;;21162425;28;20692;-64
2022/05/18 17:48:28;;;;;;;3.90;2.70;;;27.10;49.90;;;;;;21161829;28;20657;-63
2022/05/18 17:58:30;;;;;;;6.17;2.70;;;26.90;50.80;;;;;;21161121;28;20233;-65
2022/05/18 18:08:33;;;;;;;7.67;2.40;;;26.60;50.50;;;;;;21160795;28;20198;-69
2022/05/18 18:18:37;;;;;;;4.47;3.37;;;26.40;52.10;;;;;;21157815;28;20716;-66
2022/05/18 18:28:38;;;;;;;28.67;3.10;;;26.10;53.30;;;;;;21159130;28;20687;-62
2022/05/18 18:38:40;;;;;;;6.80;3.07;;;25.90;53.90;;;;;;21156991;28;20234;-65
2022/05/18 18:48:42;;;;;;;5.77;4.40;;;25.70;54.80;;;;;;21138467;28;20262;-64
2022/05/18 18:58:44;;;;;;;5.97;3.67;;;25.40;55.40;;;;;;21127206;28;20230;-64
2022/05/18 19:08:46;;;;;;;7.70;3.67;;;25.20;56.10;;;;;;21108273;28;20253;-65
2022/05/18 19:18:47;;;;;;;5.43;3.97;;;24.90;56.90;;;;;;21192655;28;20712;-68
2022/05/18 19:28:49;;;;;;;6.10;3.80;;;24.70;57.50;;;;;;21191383;28;20206;-64
2022/05/18 19:38:51;;;;;;;5.53;3.40;;;24.60;58.00;;;;;;21169714;28;20242;-63
2022/05/18 19:48:53;;;;;;;4.53;3.33;;;24.40;58.30;;;;;;21128360;27;20225;-61
2022/05/18 19:58:56;;;;;;;6.43;3.53;;;24.20;58.80;;;;;;21078337;28;20465;-65
2022/05/18 20:08:57;;;;;;;5.60;3.70;;;24.50;59.50;;;;;;21079580;28;20206;-65
2022/05/18 20:18:59;;;;;;;4.90;4.10;;;24.00;59.90;;;;;;21150611;28;20241;-63
2022/05/18 20:29:06;;;;;;;5.63;3.73;;;23.80;60.20;;;;;;21161937;28;20439;-65
2022/05/18 20:39:08;;;;;;;13.43;5.10;;;23.90;61.70;;;;;;21157671;28;21001;-63
2022/05/18 20:49:10;;;;;;;6.13;4.57;;;24.00;64.30;;;;;;21162059;28;20455;-63
2022/05/18 20:59:12;;;;;;;7.03;4.40;;;23.10;65.50;;;;;;21142526;28;20720;-62
2022/05/18 21:09:14;;;;;;;6.37;4.73;;;22.80;66.60;;;;;;21119802;28;20203;-64
2022/05/18 21:19:18;;;;;;;6.23;4.47;;;22.50;67.20;;;;;;21075813;28;20242;-63
2022/05/18 21:29:25;;;;;;;5.77;4.00;;;22.20;68.40;;;;;;21075834;28;20669;-62
2022/05/18 21:39:26;;;;;;;7.97;4.60;;;22.00;69.20;;;;;;21075943;28;20739;-62
2022/05/18 21:49:28;;;;;;;8.43;4.77;;;21.80;70.70;;;;;;21125440;28;20240;-64
2022/05/18 21:59:37;;;;;;;10.00;5.23;;;21.70;71.70;;;;;;21157482;28;20232;-63
2022/05/18 22:09:39;;;;;;;8.60;5.30;;;21.50;73.10;;;;;;21164625;28;20223;-65
2022/05/18 22:19:41;;;;;;;8.37;5.30;;;21.30;74.30;;;;;;21173716;28;20245;-64
2022/05/18 22:29:48;;;;;;;7.97;5.80;;;21.20;75.70;;;;;;21172918;28;20207;-62
2022/05/18 22:39:49;;;;;;;7.07;5.53;;;21.00;76.70;;;;;;21173718;28;20301;-63
2022/05/18 22:49:56;;;;;;;10.37;4.70;;;20.80;77.70;;;;;;21174047;28;20203;-63
2022/05/18 22:59:58;;;;;;;6.97;5.07;;;20.60;78.40;;;;;;21155566;28;20235;-64
2022/05/18 23:10:01;;;;;;;6.67;5.00;;;20.50;79.00;;;;;;21173392;28;20204;-64
2022/05/18 23:20:04;;;;;;;7.30;5.00;;;20.30;79.60;;;;;;21171618;28;20270;-65
2022/05/18 23:30:07;;;;;;;12.17;5.20;;;20.20;80.50;;;;;;21171553;28;20596;-69
2022/05/18 23:40:09;;;;;;;8.40;4.60;;;20.00;81.30;;;;;;21171216;28;20283;-67
2022/05/18 23:51:29;;;;;;;5.50;5.00;;;19.90;82.20;;;;;;21175198;28;20606;-65
